createdAt,value
2019-05-19T00:00:17.688Z,100501.25
2019-05-19T00:02:47.205Z,100503.27
2019-05-19T00:05:16.717Z,100507.17
2019-05-19T00:07:46.128Z,100506.84
2019-05-19T00:10:15.914Z,100505.48
2019-05-19T00:12:45.520Z,100505.15
2019-05-19T00:15:15.073Z,100511.70
2019-05-19T00:17:44.716Z,100510.89
2019-05-19T00:20:14.719Z,100515.47
2019-05-19T00:22:44.320Z,100512.94
2019-05-19T00:25:14.103Z,100506.91
2019-05-19T00:27:46.685Z,100511.81
2019-05-19T00:30:17.287Z,100511.50
2019-05-19T00:32:49.416Z,100520.27
2019-05-19T00:35:19.021Z,100517.08
2019-05-19T00:37:48.533Z,100517.92
2019-05-19T00:40:18.069Z,100510.99
2019-05-19T00:42:47.698Z,100505.09
2019-05-19T00:45:18.642Z,100507.79
2019-05-19T00:47:48.145Z,100507.79
2019-05-19T00:50:17.807Z,100502.43
2019-05-19T00:52:49.226Z,100507.30
2019-05-19T00:55:18.863Z,100503.97
2019-05-19T00:57:49.443Z,100505.82
2019-05-19T01:00:20.493Z,100511.37
2019-05-19T01:02:50.060Z,100515.08
2019-05-19T01:05:20.857Z,100510.36
2019-05-19T01:07:51.862Z,100512.41
2019-05-19T01:10:21.499Z,100516.11
2019-05-19T01:12:51.120Z,100512.05
2019-05-19T01:15:21.829Z,100514.52
2019-05-19T01:17:52.425Z,100512.51
2019-05-19T01:20:25.273Z,100506.42
2019-05-19T01:22:54.772Z,100509.27
2019-05-19T01:25:25.543Z,100510.11
2019-05-19T01:27:55.114Z,100506.72
2019-05-19T01:30:24.823Z,100509.91
2019-05-19T01:32:54.208Z,100504.19
2019-05-19T01:35:23.638Z,100500.66
2019-05-19T01:37:53.147Z,100501.47
2019-05-19T01:40:22.615Z,100505.84
2019-05-19T01:42:52.099Z,100508.91
2019-05-19T01:45:21.527Z,100505.71
2019-05-19T01:47:50.963Z,100501.16
2019-05-19T01:50:20.792Z,100502.51
2019-05-19T01:52:50.858Z,100505.88
2019-05-19T01:55:20.217Z,100500.66
2019-05-19T01:57:50.277Z,100503.19
2019-05-19T02:00:21.381Z,100506.88
2019-05-19T02:02:50.991Z,100506.72
2019-05-19T02:05:22.121Z,100514.15
2019-05-19T02:07:53.406Z,100510.95
2019-05-19T02:10:23.122Z,100516.67
2019-05-19T02:12:52.863Z,100519.72
2019-05-19T02:15:22.551Z,100524.94
2019-05-19T02:17:52.109Z,100525.13
2019-05-19T02:20:32.826Z,100522.47
2019-05-19T02:22:53.411Z,100521.78
2019-05-19T02:25:23.185Z,100521.47
2019-05-19T02:27:53.693Z,100525.01
2019-05-19T02:30:24.263Z,100522.48
2019-05-19T02:32:53.946Z,100524.50
2019-05-19T02:35:24.094Z,100525.17
2019-05-19T02:37:53.819Z,100519.59
2019-05-19T02:40:24.948Z,100526.64
2019-05-19T02:42:56.995Z,100522.10
2019-05-19T02:45:29.883Z,100521.38
2019-05-19T02:48:02.196Z,100518.66
2019-05-19T02:50:51.037Z,100518.81
2019-05-19T02:53:10.195Z,100517.41
2019-05-19T02:55:41.237Z,100518.19
2019-05-19T02:58:12.088Z,100511.09
2019-05-19T03:00:42.866Z,100513.05
2019-05-19T03:03:12.466Z,100509.92
2019-05-19T03:05:41.939Z,100505.52
2019-05-19T03:08:11.486Z,100506.15
2019-05-19T03:10:41.111Z,100514.05
2019-05-19T03:13:10.724Z,100507.97
2019-05-19T03:15:40.273Z,100509.81
2019-05-19T03:18:09.860Z,100508.47
2019-05-19T03:20:39.527Z,100501.23
2019-05-19T03:23:09.098Z,100503.09
2019-05-19T03:25:38.982Z,100507.32
2019-05-19T03:28:08.734Z,100505.48
2019-05-19T03:30:55.890Z,100503.97
2019-05-19T03:33:28.057Z,100510.52
2019-05-19T03:35:57.798Z,100517.20
2019-05-19T03:38:30.413Z,100517.92
2019-05-19T03:41:00.169Z,100517.11
2019-05-19T03:43:29.820Z,100518.39
2019-05-19T03:45:59.482Z,100518.42
2019-05-19T03:48:29.914Z,100522.86
2019-05-19T03:50:59.555Z,100524.04
2019-05-19T03:53:31.440Z,100524.24
2019-05-19T03:56:00.956Z,100517.84
2019-05-19T03:58:30.725Z,100512.80
2019-05-19T04:01:00.378Z,100515.86
2019-05-19T04:03:31.429Z,100516.20
2019-05-19T04:06:01.065Z,100523.09
2019-05-19T04:08:30.620Z,100520.40
2019-05-19T04:11:00.200Z,100524.64
2019-05-19T04:13:29.845Z,100520.94
2019-05-19T04:16:01.970Z,100522.45
2019-05-19T04:18:31.720Z,100525.14
2019-05-19T04:21:01.320Z,100523.94
2019-05-19T04:23:30.970Z,100531.67
2019-05-19T04:26:00.475Z,100532.69
2019-05-19T04:28:30.139Z,100532.98
2019-05-19T04:31:00.186Z,100533.36
2019-05-19T04:33:29.579Z,100529.80
2019-05-19T04:35:59.402Z,100526.59
2019-05-19T04:38:29.034Z,100530.63
2019-05-19T04:40:58.673Z,100528.95
2019-05-19T04:43:28.125Z,100523.91
2019-05-19T04:45:57.707Z,100530.12
2019-05-19T04:48:27.192Z,100526.39
2019-05-19T04:50:56.934Z,100532.63
2019-05-19T04:53:26.533Z,100531.27
2019-05-19T04:55:56.481Z,100525.89
2019-05-19T04:58:29.082Z,100532.45
2019-05-19T05:00:58.579Z,100530.91
2019-05-19T05:03:27.937Z,100529.73
2019-05-19T05:05:57.523Z,100533.09
2019-05-19T05:08:30.150Z,100527.71
2019-05-19T05:10:58.247Z,100537.30
2019-05-19T05:13:27.736Z,100525.86
2019-05-19T05:16:03.285Z,100530.56
2019-05-19T05:18:32.817Z,100535.78
2019-05-19T05:21:02.222Z,100538.27
2019-05-19T05:23:31.706Z,100542.64
2019-05-19T05:26:01.124Z,100538.30
2019-05-19T05:28:33.376Z,100538.30
2019-05-19T05:31:02.896Z,100538.98
2019-05-19T05:33:32.427Z,100536.80
2019-05-19T05:36:02.024Z,100539.82
2019-05-19T05:38:35.150Z,100541.70
2019-05-19T05:41:04.661Z,100549.14
2019-05-19T05:43:34.287Z,100547.79
2019-05-19T05:46:03.710Z,100546.64
2019-05-19T05:48:37.071Z,100548.53
2019-05-19T05:51:06.577Z,100547.21
2019-05-19T05:53:36.081Z,100550.24
2019-05-19T05:56:05.593Z,100549.56
2019-05-19T05:58:35.021Z,100547.91
2019-05-19T06:01:04.801Z,100551.11
2019-05-19T06:03:40.754Z,100548.78
2019-05-19T06:06:10.368Z,100548.95
2019-05-19T06:08:39.901Z,100547.30
2019-05-19T06:11:09.381Z,100553.02
2019-05-19T06:13:38.886Z,100557.39
2019-05-19T06:16:08.361Z,100563.48
2019-05-19T06:18:37.948Z,100561.45
2019-05-19T06:21:07.568Z,100563.64
2019-05-19T06:23:37.245Z,100561.80
2019-05-19T06:26:06.730Z,100560.11
2019-05-19T06:28:36.169Z,100561.80
2019-05-19T06:31:05.742Z,100561.48
2019-05-19T06:33:51.283Z,100568.38
2019-05-19T06:36:31.997Z,100567.23
2019-05-19T06:39:01.509Z,100566.59
2019-05-19T06:41:31.119Z,100568.97
2019-05-19T06:44:03.318Z,100571.31
2019-05-19T06:46:32.610Z,100573.03
2019-05-19T06:49:02.137Z,100570.84
2019-05-19T06:51:31.936Z,100570.34
2019-05-19T06:54:02.054Z,100574.72
2019-05-19T06:56:31.540Z,100578.92
2019-05-19T06:59:01.078Z,100579.93
2019-05-19T07:01:30.751Z,100581.98
2019-05-19T07:04:00.138Z,100589.91
2019-05-19T07:06:29.887Z,100585.55
2019-05-19T07:08:59.341Z,100581.38
2019-05-19T07:11:28.728Z,100583.97
2019-05-19T07:13:58.276Z,100588.02
2019-05-19T07:16:27.712Z,100595.62
2019-05-19T07:18:57.318Z,100588.41
2019-05-19T07:21:26.749Z,100588.44
2019-05-19T07:23:56.153Z,100593.17
2019-05-19T07:26:25.654Z,100591.16
2019-05-19T07:28:55.156Z,100595.03
2019-05-19T07:31:24.643Z,100597.57
2019-05-19T07:33:54.102Z,100599.61
2019-05-19T07:36:23.609Z,100600.13
2019-05-19T07:38:52.998Z,100598.93
2019-05-19T07:41:22.427Z,100603.16
2019-05-19T07:43:51.935Z,100603.66
2019-05-19T07:46:22.349Z,100610.11
2019-05-19T07:48:51.777Z,100610.09
2019-05-19T07:51:21.273Z,100610.98
2019-05-19T07:53:50.977Z,100602.55
2019-05-19T07:56:20.472Z,100606.09
2019-05-19T07:58:50.261Z,100609.45
2019-05-19T08:01:22.504Z,100610.48
2019-05-19T08:03:52.064Z,100614.87
2019-05-19T08:06:21.488Z,100615.70
2019-05-19T08:08:50.895Z,100615.89
2019-05-19T08:11:20.305Z,100624.98
2019-05-19T08:13:49.862Z,100626.66
2019-05-19T08:16:19.507Z,100630.05
2019-05-19T08:18:51.091Z,100626.16
2019-05-19T08:21:20.361Z,100637.47
2019-05-19T08:23:59.922Z,100638.13
2019-05-19T08:26:25.770Z,100639.30
2019-05-19T08:28:55.309Z,100641.52
2019-05-19T08:31:24.754Z,100630.36
2019-05-19T08:33:54.213Z,100642.18
2019-05-19T08:36:23.746Z,100647.25
2019-05-19T08:38:53.156Z,100656.38
2019-05-19T08:41:22.604Z,100652.48
2019-05-19T08:43:53.536Z,100655.03
2019-05-19T08:46:22.954Z,100653.14
2019-05-19T08:48:52.430Z,100648.58
2019-05-19T08:51:21.885Z,100655.66
2019-05-19T08:53:51.335Z,100657.52
2019-05-19T08:56:20.751Z,100659.05
2019-05-19T08:58:50.345Z,100660.41
2019-05-19T09:01:21.983Z,100659.52
2019-05-19T09:03:51.974Z,100666.80
2019-05-19T09:06:21.347Z,100674.06
2019-05-19T09:08:50.714Z,100668.14
2019-05-19T09:11:20.092Z,100671.03
2019-05-19T09:13:49.461Z,100667.16
2019-05-19T09:16:18.822Z,100673.55
2019-05-19T09:18:48.376Z,100665.44
2019-05-19T09:21:17.785Z,100670.84
2019-05-19T09:23:47.224Z,100673.58
2019-05-19T09:26:16.655Z,100671.87
2019-05-19T09:28:46.058Z,100660.87
2019-05-19T09:31:15.366Z,100668.51
2019-05-19T09:33:44.775Z,100664.41
2019-05-19T09:36:14.175Z,100665.95
2019-05-19T09:38:43.650Z,100664.59
2019-05-19T09:41:13.027Z,100662.55
2019-05-19T09:43:42.500Z,100660.19
2019-05-19T09:46:13.973Z,100665.44
2019-05-19T09:48:43.137Z,100669.81
2019-05-19T09:51:12.559Z,100664.59
2019-05-19T09:53:44.611Z,100669.30
2019-05-19T09:56:13.963Z,100670.14
2019-05-19T09:58:43.308Z,100671.52
2019-05-19T10:01:12.635Z,100676.68
2019-05-19T10:03:42.094Z,100668.05
2019-05-19T10:06:11.463Z,100676.78
2019-05-19T10:08:51.175Z,100672.70
2019-05-19T10:12:00.296Z,100663.69
2019-05-19T10:14:29.651Z,100662.47
2019-05-19T10:16:59.037Z,100660.11
2019-05-19T10:19:29.651Z,100667.14
2019-05-19T10:21:59.027Z,100671.78
2019-05-19T10:24:28.499Z,100658.50
2019-05-19T10:26:57.946Z,100661.97
2019-05-19T10:29:27.483Z,100663.33
2019-05-19T10:31:56.904Z,100662.23
2019-05-19T10:34:26.331Z,100668.27
2019-05-19T10:36:55.691Z,100665.15
2019-05-19T10:39:25.127Z,100662.09
2019-05-19T10:41:54.556Z,100663.92
2019-05-19T10:44:23.904Z,100663.02
2019-05-19T10:46:53.495Z,100664.86
2019-05-19T10:49:22.914Z,100664.96
2019-05-19T10:51:52.439Z,100656.76
2019-05-19T10:54:21.899Z,100657.59
2019-05-19T10:56:51.341Z,100663.34
2019-05-19T10:59:20.763Z,100660.59
2019-05-19T11:01:50.220Z,100664.94
2019-05-19T11:04:19.675Z,100661.36
2019-05-19T11:06:49.292Z,100666.35
2019-05-19T11:09:18.809Z,100667.34
2019-05-19T11:11:48.151Z,100667.06
2019-05-19T11:14:20.309Z,100673.08
2019-05-19T11:16:50.091Z,100680.56
2019-05-19T11:19:19.569Z,100673.61
2019-05-19T11:21:48.952Z,100670.24
2019-05-19T11:24:18.624Z,100672.15
2019-05-19T11:26:47.992Z,100667.34
2019-05-19T11:29:17.395Z,100682.41
2019-05-19T11:31:46.952Z,100689.03
2019-05-19T11:34:16.463Z,100693.91
2019-05-19T11:36:46.027Z,100688.45
2019-05-19T11:39:15.376Z,100694.25
2019-05-19T11:41:44.727Z,100693.83
2019-05-19T11:44:14.187Z,100706.82
2019-05-19T11:46:45.115Z,100706.03
2019-05-19T11:49:14.682Z,100707.36
2019-05-19T11:51:44.041Z,100699.64
2019-05-19T11:54:13.614Z,100713.21
2019-05-19T11:56:43.034Z,100692.55
2019-05-19T11:59:15.485Z,100701.27
2019-05-19T12:01:47.434Z,100711.67
2019-05-19T12:04:19.649Z,100703.14
2019-05-19T12:06:49.339Z,100720.03
2019-05-19T12:09:18.868Z,100717.98
2019-05-19T12:11:48.344Z,100724.81
2019-05-19T12:14:18.908Z,100709.73
2019-05-19T12:16:48.436Z,100718.39
2019-05-19T12:19:20.634Z,100715.14
2019-05-19T12:21:50.132Z,100722.08
2019-05-19T12:24:21.973Z,100719.92
2019-05-19T12:26:51.324Z,100726.20
2019-05-19T12:29:20.932Z,100716.20
2019-05-19T12:31:52.260Z,100717.22
2019-05-19T12:34:21.676Z,100723.75
2019-05-19T12:36:51.313Z,100719.84
2019-05-19T12:39:21.635Z,100724.02
2019-05-19T12:41:55.000Z,100730.34
2019-05-19T12:44:24.503Z,100734.23
2019-05-19T12:46:53.953Z,100736.96
2019-05-19T12:49:23.454Z,100730.55
2019-05-19T12:51:54.725Z,100727.94
2019-05-19T12:54:24.148Z,100732.82
2019-05-19T12:57:02.369Z,100723.51
2019-05-19T12:59:31.914Z,100713.05
2019-05-19T13:02:01.456Z,100720.30
2019-05-19T13:04:36.140Z,100717.27
2019-05-19T13:07:11.754Z,100727.05
2019-05-19T13:09:41.275Z,100718.00
2019-05-19T13:12:12.826Z,100723.52
2019-05-19T13:14:44.965Z,100728.14
2019-05-19T13:17:16.108Z,100727.58
2019-05-19T13:19:45.605Z,100732.84
2019-05-19T13:22:16.827Z,100731.05
2019-05-19T13:24:47.904Z,100733.33
2019-05-19T13:27:17.379Z,100718.09
2019-05-19T13:29:47.791Z,100719.96
2019-05-19T13:32:17.245Z,100718.87
2019-05-19T13:34:47.136Z,100726.25
2019-05-19T13:37:22.165Z,100729.97
2019-05-19T13:39:53.041Z,100738.62
2019-05-19T13:42:22.931Z,100746.18
2019-05-19T13:44:55.255Z,100751.62
2019-05-19T13:47:29.638Z,100736.47
2019-05-19T13:49:58.550Z,100734.48
2019-05-19T13:52:31.207Z,100728.67
2019-05-19T13:55:01.209Z,100739.02
2019-05-19T13:57:57.208Z,100736.56
2019-05-19T14:00:26.766Z,100720.72
2019-05-19T14:02:56.518Z,100722.88
2019-05-19T14:05:39.176Z,100720.36
2019-05-19T14:08:10.749Z,100718.63
2019-05-19T14:10:40.257Z,100724.81
2019-05-19T14:13:09.688Z,100720.16
2019-05-19T14:15:39.014Z,100714.30
2019-05-19T14:18:08.448Z,100722.93
2019-05-19T14:21:13.830Z,100716.48
2019-05-19T14:23:43.382Z,100726.75
2019-05-19T14:29:16.171Z,100721.08
2019-05-19T14:31:58.786Z,100708.39
2019-05-19T14:34:33.065Z,100721.20
2019-05-19T14:37:06.091Z,100722.03
2019-05-19T14:39:39.426Z,100711.82
2019-05-19T14:42:15.069Z,100728.27
2019-05-19T14:44:45.855Z,100731.75
2019-05-19T14:47:30.432Z,100731.73
2019-05-19T14:50:03.804Z,100736.67
2019-05-19T14:52:36.223Z,100734.64
2019-05-19T14:55:06.546Z,100738.06
2019-05-19T14:57:45.355Z,100734.94
2019-05-19T15:00:15.585Z,100731.76
2019-05-19T15:02:56.735Z,100725.37
2019-05-19T15:05:27.134Z,100731.08
2019-05-19T15:07:56.697Z,100719.90
2019-05-19T15:10:27.535Z,100723.81
2019-05-19T15:12:57.111Z,100726.73
2019-05-19T15:15:26.436Z,100719.27
2019-05-19T15:17:55.860Z,100722.44
2019-05-19T15:20:25.313Z,100718.11
2019-05-19T15:22:56.841Z,100732.41
2019-05-19T15:25:26.433Z,100729.26
2019-05-19T15:28:00.670Z,100717.27
2019-05-19T15:33:37.725Z,100717.80
2019-05-19T15:36:01.366Z,100722.95
2019-05-19T15:38:34.343Z,100720.00
2019-05-19T15:41:05.882Z,100722.17
2019-05-19T15:43:35.937Z,100721.64
2019-05-19T15:46:05.565Z,100728.77
2019-05-19T15:48:40.380Z,100724.29
2019-05-19T15:51:09.905Z,100723.56
2019-05-19T15:53:39.569Z,100725.27
2019-05-19T15:56:09.050Z,100732.69
2019-05-19T15:58:54.292Z,100721.89
2019-05-19T16:01:23.745Z,100718.01
2019-05-19T16:06:28.821Z,100725.80
2019-05-19T16:08:58.217Z,100733.95
2019-05-19T16:11:29.970Z,100724.88
2019-05-19T16:13:59.373Z,100723.21
2019-05-19T16:16:29.136Z,100732.31
2019-05-19T16:21:38.282Z,100735.34
2019-05-19T16:24:16.240Z,100738.08
2019-05-19T16:26:46.167Z,100735.78
2019-05-19T16:29:16.603Z,100729.34
2019-05-19T16:31:56.194Z,100730.52
2019-05-19T16:34:25.760Z,100734.62
2019-05-19T16:37:04.985Z,100718.54
2019-05-19T16:39:47.633Z,100725.80
2019-05-19T16:42:42.607Z,100720.45
2019-05-19T16:45:18.346Z,100725.37
2019-05-19T16:48:01.939Z,100722.41
2019-05-19T16:50:45.223Z,100717.39
2019-05-19T17:02:06.763Z,100724.81
2019-05-19T17:04:36.209Z,100720.95
2019-05-19T17:07:06.411Z,100725.34
2019-05-19T17:09:35.824Z,100711.63
2019-05-19T17:12:11.995Z,100715.09
2019-05-19T17:14:43.394Z,100722.28
2019-05-19T17:17:14.300Z,100721.71
2019-05-19T17:19:44.028Z,100719.51
2019-05-19T17:22:20.166Z,100710.78
2019-05-19T17:24:49.877Z,100714.25
2019-05-19T17:28:04.717Z,100709.66
2019-05-19T17:30:59.121Z,100709.64
2019-05-19T17:34:06.127Z,100712.84
2019-05-19T17:36:42.136Z,100712.84
2019-05-19T17:39:16.201Z,100710.19
2019-05-19T17:41:45.671Z,100706.73
2019-05-19T17:44:18.248Z,100713.28
2019-05-19T17:47:06.581Z,100712.55
2019-05-19T17:49:39.180Z,100726.36
2019-05-19T17:54:41.990Z,100718.86
2019-05-19T17:57:24.369Z,100719.16
2019-05-19T18:00:17.347Z,100720.45
2019-05-19T18:08:43.764Z,100724.44
2019-05-19T18:14:04.000Z,100732.34
2019-05-19T18:19:12.605Z,100738.70
2019-05-19T18:21:41.901Z,100743.31
2019-05-19T18:24:14.005Z,100740.68
2019-05-19T18:26:44.845Z,100744.44
2019-05-19T18:29:31.752Z,100745.70
2019-05-19T18:32:40.638Z,100741.27
2019-05-19T18:38:21.434Z,100753.69
2019-05-19T18:40:55.710Z,100752.48
2019-05-19T18:43:27.396Z,100763.37
2019-05-19T18:46:03.847Z,100753.34
2019-05-19T18:52:27.398Z,100759.37
2019-05-19T18:55:07.915Z,100758.74
2019-05-19T18:57:56.129Z,100757.96
2019-05-19T19:00:36.569Z,100756.72
2019-05-19T19:05:59.493Z,100762.69
2019-05-19T19:08:37.852Z,100756.52
2019-05-19T19:11:09.414Z,100760.66
2019-05-19T19:13:38.912Z,100758.02
2019-05-19T19:16:11.668Z,100757.90
2019-05-19T19:18:43.369Z,100762.30
2019-05-19T19:21:12.870Z,100759.26
2019-05-19T19:23:42.430Z,100763.08
2019-05-19T19:26:11.961Z,100768.41
2019-05-19T19:28:41.368Z,100764.67
2019-05-19T19:31:10.721Z,100759.24
2019-05-19T19:33:40.093Z,100764.09
2019-05-19T19:36:09.566Z,100762.02
2019-05-19T19:38:39.368Z,100762.83
2019-05-19T19:41:09.618Z,100771.45
2019-05-19T19:43:39.102Z,100766.08
2019-05-19T19:46:08.535Z,100770.73
2019-05-19T19:48:38.076Z,100768.09
2019-05-19T19:51:07.516Z,100772.70
2019-05-19T19:53:36.974Z,100776.90
2019-05-19T19:56:10.381Z,100781.14
2019-05-19T19:58:39.896Z,100784.34
2019-05-19T20:01:10.084Z,100785.00
2019-05-19T20:03:40.526Z,100783.95
2019-05-19T20:06:10.246Z,100786.81
2019-05-19T20:08:40.457Z,100782.75
2019-05-19T20:11:09.815Z,100783.93
2019-05-19T20:13:39.170Z,100786.59
2019-05-19T20:16:08.529Z,100788.95
2019-05-19T20:18:37.885Z,100786.55
2019-05-19T20:21:07.265Z,100792.60
2019-05-19T20:23:36.631Z,100792.39
2019-05-19T20:26:06.005Z,100792.54
2019-05-19T20:28:35.396Z,100793.86
2019-05-19T20:31:04.926Z,100790.14
2019-05-19T20:33:34.287Z,100801.92
2019-05-19T20:36:03.766Z,100794.14
2019-05-19T20:38:33.171Z,100795.80
2019-05-19T20:41:02.718Z,100797.13
2019-05-19T20:43:32.099Z,100794.73
2019-05-19T20:46:01.479Z,100794.70
2019-05-19T20:48:32.828Z,100792.98
2019-05-19T20:51:02.216Z,100800.07
2019-05-19T20:53:33.915Z,100800.04
2019-05-19T20:56:03.402Z,100806.95
2019-05-19T20:58:32.803Z,100797.14
2019-05-19T21:01:02.134Z,100797.25
2019-05-19T21:03:31.649Z,100801.29
2019-05-19T21:06:01.148Z,100796.20
2019-05-19T21:08:30.892Z,100790.95
2019-05-19T21:11:01.682Z,100792.56
2019-05-19T21:13:31.292Z,100791.72
2019-05-19T21:16:00.738Z,100792.39
2019-05-19T21:18:34.658Z,100790.80
2019-05-19T21:21:04.503Z,100791.48
2019-05-19T21:23:41.060Z,100791.95
2019-05-19T21:26:21.060Z,100793.92
2019-05-19T21:28:50.509Z,100793.22
2019-05-19T21:31:21.867Z,100787.15
2019-05-19T21:33:51.757Z,100790.81
2019-05-19T21:36:28.108Z,100798.34
2019-05-19T21:38:58.449Z,100801.71
2019-05-19T21:41:28.151Z,100799.14
2019-05-19T21:43:57.663Z,100801.58
2019-05-19T21:46:27.265Z,100806.63
2019-05-19T21:48:56.687Z,100813.14
2019-05-19T21:51:31.647Z,100806.41
2019-05-19T21:54:01.136Z,100806.87
2019-05-19T21:56:30.563Z,100808.09
2019-05-19T21:59:00.123Z,100806.41
2019-05-19T22:01:29.682Z,100803.70
2019-05-19T22:03:59.120Z,100808.77
2019-05-19T22:06:30.281Z,100812.34
2019-05-19T22:08:59.734Z,100807.42
2019-05-19T22:11:29.159Z,100811.46
2019-05-19T22:13:59.625Z,100813.14
2019-05-19T22:16:29.252Z,100816.21
2019-05-19T22:18:58.858Z,100820.77
2019-05-19T22:21:28.449Z,100818.28
2019-05-19T22:23:57.979Z,100823.33
2019-05-19T22:26:30.080Z,100819.29
2019-05-19T22:28:59.508Z,100824.01
2019-05-19T22:34:04.036Z,100820.27
2019-05-19T22:36:43.112Z,100824.58
2019-05-19T22:39:12.568Z,100823.52
2019-05-19T22:41:41.947Z,100825.81
2019-05-19T22:44:13.157Z,100824.92
2019-05-19T22:46:45.179Z,100820.02
2019-05-19T22:49:16.243Z,100824.03
2019-05-19T22:51:53.227Z,100822.30
2019-05-19T22:54:22.766Z,100818.71
2019-05-19T22:56:52.696Z,100818.84
2019-05-19T22:59:34.954Z,100824.83
2019-05-19T23:02:09.179Z,100823.14
2019-05-19T23:04:37.579Z,100816.92
2019-05-19T23:07:06.973Z,100822.72
2019-05-19T23:09:36.974Z,100819.05
2019-05-19T23:12:12.297Z,100821.03
2019-05-19T23:14:41.848Z,100818.34
2019-05-19T23:17:18.194Z,100814.59
2019-05-19T23:20:21.733Z,100813.59
2019-05-19T23:22:52.244Z,100819.97
2019-05-19T23:25:21.828Z,100815.20
2019-05-19T23:28:27.812Z,100817.48
2019-05-19T23:30:57.381Z,100817.11
2019-05-19T23:33:30.389Z,100818.62
2019-05-19T23:35:59.893Z,100815.25
2019-05-19T23:38:29.374Z,100822.59
2019-05-19T23:40:58.796Z,100822.47
2019-05-19T23:43:29.486Z,100819.41
2019-05-19T23:45:59.397Z,100824.44
2019-05-19T23:48:28.832Z,100820.56
2019-05-19T23:50:58.251Z,100819.38
2019-05-19T23:53:27.806Z,100827.08
2019-05-19T23:55:58.765Z,100827.05
2019-05-19T23:58:29.227Z,100827.17
